sensor_id;sensor_type;location;lat;lon;timestamp;P1;durP1;ratioP1;P2;durP2;ratioP2
16015;SDS011;8112;53.592;10.184;2023-09-12T00:04:15;22.67;;;20.43;;
16015;SDS011;8112;53.592;10.184;2023-09-12T00:09:17;31.80;;;25.57;;
16015;SDS011;8112;53.592;10.184;2023-09-12T00:14:20;27.50;;;24.67;;
16015;SDS011;8112;53.592;10.184;2023-09-12T00:19:21;30.73;;;27.33;;
16015;SDS011;8112;53.592;10.184;2023-09-12T00:24:23;32.40;;;29.13;;
16015;SDS011;8112;53.592;10.184;2023-09-12T00:29:26;39.10;;;35.17;;
16015;SDS011;8112;53.592;10.184;2023-09-12T00:34:28;40.40;;;36.03;;
16015;SDS011;8112;53.592;10.184;2023-09-12T00:39:29;47.00;;;41.07;;
16015;SDS011;8112;53.592;10.184;2023-09-12T00:44:33;49.47;;;44.10;;
16015;SDS011;8112;53.592;10.184;2023-09-12T00:49:35;55.70;;;46.13;;
16015;SDS011;8112;53.592;10.184;2023-09-12T00:54:38;57.03;;;50.00;;
16015;SDS011;8112;53.592;10.184;2023-09-12T00:59:42;56.67;;;47.10;;
16015;SDS011;8112;53.592;10.184;2023-09-12T01:04:44;67.90;;;52.97;;
16015;SDS011;8112;53.592;10.184;2023-09-12T01:09:46;64.33;;;51.77;;
16015;SDS011;8112;53.592;10.184;2023-09-12T01:14:49;63.00;;;50.63;;
16015;SDS011;8112;53.592;10.184;2023-09-12T01:19:51;57.83;;;50.83;;
16015;SDS011;8112;53.592;10.184;2023-09-12T01:25:11;61.10;;;48.77;;
16015;SDS011;8112;53.592;10.184;2023-09-12T01:30:29;59.63;;;47.40;;
16015;SDS011;8112;53.592;10.184;2023-09-12T01:35:34;53.87;;;45.87;;
16015;SDS011;8112;53.592;10.184;2023-09-12T01:40:38;47.10;;;42.03;;
16015;SDS011;8112;53.592;10.184;2023-09-12T01:45:45;49.30;;;43.30;;
16015;SDS011;8112;53.592;10.184;2023-09-12T01:50:49;53.73;;;43.63;;
16015;SDS011;8112;53.592;10.184;2023-09-12T01:55:51;55.80;;;44.03;;
16015;SDS011;8112;53.592;10.184;2023-09-12T02:00:55;44.83;;;39.47;;
16015;SDS011;8112;53.592;10.184;2023-09-12T02:05:57;50.53;;;41.47;;
16015;SDS011;8112;53.592;10.184;2023-09-12T02:10:59;42.03;;;37.53;;
16015;SDS011;8112;53.592;10.184;2023-09-12T02:16:02;42.83;;;38.10;;
16015;SDS011;8112;53.592;10.184;2023-09-12T02:21:04;44.60;;;37.50;;
16015;SDS011;8112;53.592;10.184;2023-09-12T02:26:05;41.50;;;36.07;;
16015;SDS011;8112;53.592;10.184;2023-09-12T02:31:10;45.53;;;36.60;;
16015;SDS011;8112;53.592;10.184;2023-09-12T02:36:12;39.60;;;34.77;;
16015;SDS011;8112;53.592;10.184;2023-09-12T02:41:14;39.80;;;34.37;;
16015;SDS011;8112;53.592;10.184;2023-09-12T02:46:17;42.10;;;35.63;;
16015;SDS011;8112;53.592;10.184;2023-09-12T02:51:19;41.10;;;34.73;;
16015;SDS011;8112;53.592;10.184;2023-09-12T02:56:21;39.63;;;33.13;;
16015;SDS011;8112;53.592;10.184;2023-09-12T03:01:24;36.70;;;32.57;;
16015;SDS011;8112;53.592;10.184;2023-09-12T03:06:28;36.40;;;32.60;;
16015;SDS011;8112;53.592;10.184;2023-09-12T03:11:31;36.57;;;32.30;;
16015;SDS011;8112;53.592;10.184;2023-09-12T03:16:34;38.00;;;32.43;;
16015;SDS011;8112;53.592;10.184;2023-09-12T03:21:37;36.57;;;32.10;;
16015;SDS011;8112;53.592;10.184;2023-09-12T03:26:40;36.73;;;32.83;;
16015;SDS011;8112;53.592;10.184;2023-09-12T03:31:43;34.33;;;30.20;;
16015;SDS011;8112;53.592;10.184;2023-09-12T03:36:45;35.40;;;30.80;;
16015;SDS011;8112;53.592;10.184;2023-09-12T03:41:46;33.87;;;30.13;;
16015;SDS011;8112;53.592;10.184;2023-09-12T03:46:50;38.87;;;33.40;;
16015;SDS011;8112;53.592;10.184;2023-09-12T03:51:52;37.83;;;32.13;;
16015;SDS011;8112;53.592;10.184;2023-09-12T03:56:53;38.30;;;32.93;;
16015;SDS011;8112;53.592;10.184;2023-09-12T04:01:57;44.23;;;36.40;;
16015;SDS011;8112;53.592;10.184;2023-09-12T04:06:58;41.50;;;35.40;;
16015;SDS011;8112;53.592;10.184;2023-09-12T04:12:01;43.17;;;38.13;;
16015;SDS011;8112;53.592;10.184;2023-09-12T04:17:04;48.60;;;39.80;;
16015;SDS011;8112;53.592;10.184;2023-09-12T04:22:06;46.23;;;38.27;;
16015;SDS011;8112;53.592;10.184;2023-09-12T04:27:08;55.97;;;44.07;;
16015;SDS011;8112;53.592;10.184;2023-09-12T04:32:11;57.17;;;43.80;;
16015;SDS011;8112;53.592;10.184;2023-09-12T04:37:13;61.00;;;46.20;;
16015;SDS011;8112;53.592;10.184;2023-09-12T04:42:15;55.63;;;45.37;;
16015;SDS011;8112;53.592;10.184;2023-09-12T04:47:18;61.57;;;47.07;;
16015;SDS011;8112;53.592;10.184;2023-09-12T04:52:19;57.03;;;44.33;;
16015;SDS011;8112;53.592;10.184;2023-09-12T04:57:21;57.30;;;43.87;;
16015;SDS011;8112;53.592;10.184;2023-09-12T05:02:25;61.20;;;45.60;;
16015;SDS011;8112;53.592;10.184;2023-09-12T05:07:27;66.17;;;47.57;;
16015;SDS011;8112;53.592;10.184;2023-09-12T05:12:28;65.60;;;50.60;;
16015;SDS011;8112;53.592;10.184;2023-09-12T05:17:32;70.43;;;50.83;;
16015;SDS011;8112;53.592;10.184;2023-09-12T05:22:34;71.43;;;52.97;;
16015;SDS011;8112;53.592;10.184;2023-09-12T05:27:35;134.47;;;56.57;;
16015;SDS011;8112;53.592;10.184;2023-09-12T05:32:38;73.27;;;50.40;;
16015;SDS011;8112;53.592;10.184;2023-09-12T05:37:42;592.40;;;125.97;;
16015;SDS011;8112;53.592;10.184;2023-09-12T05:42:44;100.53;;;56.87;;
16015;SDS011;8112;53.592;10.184;2023-09-12T05:47:47;475.03;;;104.33;;
16015;SDS011;8112;53.592;10.184;2023-09-12T05:52:50;140.87;;;65.30;;
16015;SDS011;8112;53.592;10.184;2023-09-12T05:57:53;101.50;;;60.27;;
16015;SDS011;8112;53.592;10.184;2023-09-12T06:02:57;80.73;;;57.67;;
16015;SDS011;8112;53.592;10.184;2023-09-12T06:07:59;83.27;;;58.33;;
16015;SDS011;8112;53.592;10.184;2023-09-12T06:13:01;84.47;;;58.53;;
16015;SDS011;8112;53.592;10.184;2023-09-12T06:18:04;89.73;;;58.17;;
16015;SDS011;8112;53.592;10.184;2023-09-12T06:23:06;87.93;;;57.30;;
16015;SDS011;8112;53.592;10.184;2023-09-12T06:28:08;97.23;;;62.90;;
16015;SDS011;8112;53.592;10.184;2023-09-12T06:33:13;92.43;;;62.10;;
16015;SDS011;8112;53.592;10.184;2023-09-12T06:38:14;94.23;;;62.07;;
16015;SDS011;8112;53.592;10.184;2023-09-12T06:43:16;104.43;;;67.70;;
16015;SDS011;8112;53.592;10.184;2023-09-12T06:48:19;104.27;;;67.27;;
16015;SDS011;8112;53.592;10.184;2023-09-12T06:53:21;107.37;;;68.93;;
16015;SDS011;8112;53.592;10.184;2023-09-12T06:58:23;106.43;;;67.53;;
16015;SDS011;8112;53.592;10.184;2023-09-12T07:03:26;103.83;;;68.10;;
16015;SDS011;8112;53.592;10.184;2023-09-12T07:08:28;100.83;;;66.60;;
16015;SDS011;8112;53.592;10.184;2023-09-12T07:13:30;109.87;;;68.73;;
16015;SDS011;8112;53.592;10.184;2023-09-12T07:18:33;99.57;;;65.80;;
16015;SDS011;8112;53.592;10.184;2023-09-12T07:23:35;94.70;;;65.00;;
16015;SDS011;8112;53.592;10.184;2023-09-12T07:28:37;91.93;;;63.97;;
16015;SDS011;8112;53.592;10.184;2023-09-12T07:33:40;92.13;;;61.37;;
16015;SDS011;8112;53.592;10.184;2023-09-12T07:38:42;68.67;;;51.40;;
16015;SDS011;8112;53.592;10.184;2023-09-12T07:43:45;79.13;;;57.13;;
16015;SDS011;8112;53.592;10.184;2023-09-12T07:48:48;72.87;;;55.33;;
16015;SDS011;8112;53.592;10.184;2023-09-12T07:53:50;76.77;;;56.40;;
16015;SDS011;8112;53.592;10.184;2023-09-12T07:58:51;76.47;;;55.20;;
16015;SDS011;8112;53.592;10.184;2023-09-12T08:03:54;76.97;;;54.83;;
16015;SDS011;8112;53.592;10.184;2023-09-12T08:08:57;70.57;;;53.90;;
16015;SDS011;8112;53.592;10.184;2023-09-12T08:13:58;70.30;;;54.33;;
16015;SDS011;8112;53.592;10.184;2023-09-12T08:19:01;65.63;;;50.10;;
16015;SDS011;8112;53.592;10.184;2023-09-12T08:24:03;61.07;;;48.93;;
16015;SDS011;8112;53.592;10.184;2023-09-12T08:29:06;63.80;;;53.30;;
16015;SDS011;8112;53.592;10.184;2023-09-12T08:34:09;58.10;;;48.33;;
16015;SDS011;8112;53.592;10.184;2023-09-12T08:39:11;89.80;;;49.23;;
16015;SDS011;8112;53.592;10.184;2023-09-12T08:44:15;52.03;;;42.87;;
16015;SDS011;8112;53.592;10.184;2023-09-12T08:49:18;73.00;;;48.13;;
16015;SDS011;8112;53.592;10.184;2023-09-12T08:54:20;70.20;;;45.67;;
16015;SDS011;8112;53.592;10.184;2023-09-12T08:59:21;56.73;;;44.30;;
16015;SDS011;8112;53.592;10.184;2023-09-12T09:04:25;78.30;;;45.63;;
16015;SDS011;8112;53.592;10.184;2023-09-12T09:09:31;52.60;;;42.00;;
16015;SDS011;8112;53.592;10.184;2023-09-12T09:14:33;48.97;;;40.47;;
16015;SDS011;8112;53.592;10.184;2023-09-12T09:19:41;50.63;;;37.90;;
16015;SDS011;8112;53.592;10.184;2023-09-12T09:24:43;43.93;;;33.30;;
16015;SDS011;8112;53.592;10.184;2023-09-12T09:29:45;37.60;;;32.97;;
16015;SDS011;8112;53.592;10.184;2023-09-12T09:34:49;35.37;;;31.43;;
16015;SDS011;8112;53.592;10.184;2023-09-12T09:39:53;37.27;;;33.27;;
16015;SDS011;8112;53.592;10.184;2023-09-12T09:44:55;32.83;;;29.20;;
16015;SDS011;8112;53.592;10.184;2023-09-12T09:49:59;31.60;;;28.53;;
16015;SDS011;8112;53.592;10.184;2023-09-12T09:55:00;31.50;;;28.20;;
16015;SDS011;8112;53.592;10.184;2023-09-12T10:00:04;26.77;;;24.27;;
16015;SDS011;8112;53.592;10.184;2023-09-12T10:05:10;28.37;;;25.60;;
16015;SDS011;8112;53.592;10.184;2023-09-12T10:10:14;30.17;;;27.30;;
16015;SDS011;8112;53.592;10.184;2023-09-12T10:15:18;30.47;;;27.80;;
16015;SDS011;8112;53.592;10.184;2023-09-12T10:20:24;31.53;;;28.43;;
16015;SDS011;8112;53.592;10.184;2023-09-12T10:25:28;31.77;;;28.27;;
16015;SDS011;8112;53.592;10.184;2023-09-12T10:30:31;32.03;;;28.53;;
16015;SDS011;8112;53.592;10.184;2023-09-12T10:35:35;33.53;;;29.93;;
16015;SDS011;8112;53.592;10.184;2023-09-12T10:40:38;34.33;;;30.70;;
16015;SDS011;8112;53.592;10.184;2023-09-12T10:45:41;33.60;;;30.07;;
16015;SDS011;8112;53.592;10.184;2023-09-12T10:50:45;33.97;;;30.47;;
16015;SDS011;8112;53.592;10.184;2023-09-12T10:55:57;31.47;;;28.27;;
16015;SDS011;8112;53.592;10.184;2023-09-12T11:06:29;34.73;;;31.13;;
16015;SDS011;8112;53.592;10.184;2023-09-12T11:11:31;36.33;;;32.67;;
16015;SDS011;8112;53.592;10.184;2023-09-12T11:16:33;29.37;;;26.27;;
16015;SDS011;8112;53.592;10.184;2023-09-12T11:21:36;31.93;;;28.53;;
16015;SDS011;8112;53.592;10.184;2023-09-12T11:26:57;28.33;;;25.53;;
16015;SDS011;8112;53.592;10.184;2023-09-12T11:32:00;28.90;;;25.97;;
16015;SDS011;8112;53.592;10.184;2023-09-12T11:37:04;27.83;;;25.13;;
16015;SDS011;8112;53.592;10.184;2023-09-12T11:42:07;30.50;;;27.50;;
16015;SDS011;8112;53.592;10.184;2023-09-12T11:47:14;31.53;;;28.33;;
16015;SDS011;8112;53.592;10.184;2023-09-12T11:52:18;31.13;;;28.13;;
16015;SDS011;8112;53.592;10.184;2023-09-12T11:57:21;30.57;;;27.47;;
16015;SDS011;8112;53.592;10.184;2023-09-12T12:02:23;27.93;;;25.30;;
16015;SDS011;8112;53.592;10.184;2023-09-12T12:07:27;29.57;;;26.47;;
16015;SDS011;8112;53.592;10.184;2023-09-12T12:12:29;26.27;;;23.83;;
16015;SDS011;8112;53.592;10.184;2023-09-12T12:17:30;24.03;;;21.73;;
16015;SDS011;8112;53.592;10.184;2023-09-12T12:22:33;25.37;;;22.97;;
16015;SDS011;8112;53.592;10.184;2023-09-12T12:27:36;25.00;;;22.30;;
16015;SDS011;8112;53.592;10.184;2023-09-12T12:32:39;24.10;;;21.87;;
16015;SDS011;8112;53.592;10.184;2023-09-12T12:37:42;23.97;;;21.73;;
16015;SDS011;8112;53.592;10.184;2023-09-12T12:42:44;22.73;;;20.63;;
16015;SDS011;8112;53.592;10.184;2023-09-12T12:47:50;24.53;;;22.33;;
16015;SDS011;8112;53.592;10.184;2023-09-12T12:52:54;22.97;;;20.77;;
16015;SDS011;8112;53.592;10.184;2023-09-12T12:57:56;24.03;;;21.53;;
16015;SDS011;8112;53.592;10.184;2023-09-12T13:02:57;24.03;;;21.93;;
16015;SDS011;8112;53.592;10.184;2023-09-12T13:08:00;22.83;;;20.70;;
16015;SDS011;8112;53.592;10.184;2023-09-12T13:13:02;24.07;;;21.90;;
16015;SDS011;8112;53.592;10.184;2023-09-12T13:18:04;23.63;;;21.43;;
16015;SDS011;8112;53.592;10.184;2023-09-12T13:23:08;23.63;;;21.40;;
16015;SDS011;8112;53.592;10.184;2023-09-12T13:28:09;24.13;;;21.77;;
16015;SDS011;8112;53.592;10.184;2023-09-12T13:33:11;24.07;;;21.57;;
16015;SDS011;8112;53.592;10.184;2023-09-12T13:38:16;21.37;;;19.30;;
16015;SDS011;8112;53.592;10.184;2023-09-12T13:43:19;19.33;;;17.57;;
16015;SDS011;8112;53.592;10.184;2023-09-12T13:48:21;19.20;;;17.13;;
16015;SDS011;8112;53.592;10.184;2023-09-12T13:53:24;18.33;;;16.67;;
16015;SDS011;8112;53.592;10.184;2023-09-12T13:58:25;18.17;;;16.47;;
16015;SDS011;8112;53.592;10.184;2023-09-12T14:03:27;16.90;;;15.13;;
16015;SDS011;8112;53.592;10.184;2023-09-12T14:08:30;17.67;;;15.83;;
16015;SDS011;8112;53.592;10.184;2023-09-12T14:13:32;17.27;;;15.50;;
16015;SDS011;8112;53.592;10.184;2023-09-12T14:18:33;17.80;;;16.17;;
16015;SDS011;8112;53.592;10.184;2023-09-12T14:23:36;18.00;;;16.40;;
16015;SDS011;8112;53.592;10.184;2023-09-12T14:28:38;16.30;;;14.90;;
16015;SDS011;8112;53.592;10.184;2023-09-12T14:33:40;15.90;;;14.23;;
16015;SDS011;8112;53.592;10.184;2023-09-12T14:38:43;14.40;;;13.20;;
16015;SDS011;8112;53.592;10.184;2023-09-12T14:43:45;15.47;;;13.97;;
16015;SDS011;8112;53.592;10.184;2023-09-12T14:48:48;14.87;;;13.57;;
16015;SDS011;8112;53.592;10.184;2023-09-12T14:53:51;14.97;;;13.63;;
16015;SDS011;8112;53.592;10.184;2023-09-12T14:58:53;14.60;;;13.17;;
16015;SDS011;8112;53.592;10.184;2023-09-12T15:03:55;13.03;;;12.00;;
16015;SDS011;8112;53.592;10.184;2023-09-12T15:08:58;14.73;;;13.53;;
16015;SDS011;8112;53.592;10.184;2023-09-12T15:14:00;14.90;;;13.50;;
16015;SDS011;8112;53.592;10.184;2023-09-12T15:19:02;15.03;;;13.73;;
16015;SDS011;8112;53.592;10.184;2023-09-12T15:24:06;14.93;;;13.63;;
16015;SDS011;8112;53.592;10.184;2023-09-12T15:29:08;13.83;;;12.60;;
16015;SDS011;8112;53.592;10.184;2023-09-12T15:34:10;12.88;;;11.77;;
16015;SDS011;8112;53.592;10.184;2023-09-12T15:39:13;13.82;;;12.32;;
16015;SDS011;8112;53.592;10.184;2023-09-12T15:44:15;13.07;;;11.87;;
16015;SDS011;8112;53.592;10.184;2023-09-12T15:49:17;14.90;;;13.67;;
16015;SDS011;8112;53.592;10.184;2023-09-12T15:54:20;15.87;;;14.47;;
16015;SDS011;8112;53.592;10.184;2023-09-12T15:59:21;16.50;;;14.93;;
16015;SDS011;8112;53.592;10.184;2023-09-12T16:04:25;13.80;;;12.70;;
16015;SDS011;8112;53.592;10.184;2023-09-12T16:09:28;16.00;;;14.50;;
16015;SDS011;8112;53.592;10.184;2023-09-12T16:14:30;15.37;;;14.07;;
16015;SDS011;8112;53.592;10.184;2023-09-12T16:19:33;14.90;;;13.63;;
16015;SDS011;8112;53.592;10.184;2023-09-12T16:24:36;16.03;;;14.17;;
16015;SDS011;8112;53.592;10.184;2023-09-12T16:29:37;13.77;;;12.67;;
16015;SDS011;8112;53.592;10.184;2023-09-12T16:34:39;16.40;;;15.00;;
16015;SDS011;8112;53.592;10.184;2023-09-12T16:39:42;18.67;;;17.07;;
16015;SDS011;8112;53.592;10.184;2023-09-12T16:44:44;19.77;;;17.80;;
16015;SDS011;8112;53.592;10.184;2023-09-12T16:49:45;19.03;;;17.30;;
16015;SDS011;8112;53.592;10.184;2023-09-12T16:54:48;17.67;;;16.13;;
16015;SDS011;8112;53.592;10.184;2023-09-12T16:59:50;17.93;;;16.43;;
16015;SDS011;8112;53.592;10.184;2023-09-12T17:04:52;16.57;;;15.17;;
16015;SDS011;8112;53.592;10.184;2023-09-12T17:09:55;15.73;;;14.33;;
16015;SDS011;8112;53.592;10.184;2023-09-12T17:14:57;16.30;;;14.70;;
16015;SDS011;8112;53.592;10.184;2023-09-12T17:19:59;16.10;;;14.60;;
16015;SDS011;8112;53.592;10.184;2023-09-12T17:25:02;15.33;;;13.73;;
16015;SDS011;8112;53.592;10.184;2023-09-12T17:30:04;15.53;;;14.23;;
16015;SDS011;8112;53.592;10.184;2023-09-12T17:35:07;16.63;;;15.13;;
16015;SDS011;8112;53.592;10.184;2023-09-12T17:40:11;16.87;;;15.37;;
16015;SDS011;8112;53.592;10.184;2023-09-12T17:45:13;16.47;;;15.07;;
16015;SDS011;8112;53.592;10.184;2023-09-12T17:50:14;16.27;;;14.70;;
16015;SDS011;8112;53.592;10.184;2023-09-12T17:55:17;15.90;;;14.40;;
16015;SDS011;8112;53.592;10.184;2023-09-12T18:00:22;17.30;;;15.53;;
16015;SDS011;8112;53.592;10.184;2023-09-12T18:05:27;17.07;;;15.47;;
16015;SDS011;8112;53.592;10.184;2023-09-12T18:10:30;18.33;;;16.63;;
16015;SDS011;8112;53.592;10.184;2023-09-12T18:15:32;19.33;;;17.50;;
16015;SDS011;8112;53.592;10.184;2023-09-12T18:20:34;18.80;;;17.20;;
16015;SDS011;8112;53.592;10.184;2023-09-12T18:25:37;19.13;;;17.53;;
16015;SDS011;8112;53.592;10.184;2023-09-12T18:30:39;18.80;;;17.00;;
16015;SDS011;8112;53.592;10.184;2023-09-12T18:35:40;18.13;;;16.53;;
16015;SDS011;8112;53.592;10.184;2023-09-12T18:40:43;17.70;;;16.10;;
16015;SDS011;8112;53.592;10.184;2023-09-12T18:45:45;19.10;;;17.27;;
16015;SDS011;8112;53.592;10.184;2023-09-12T18:50:47;18.27;;;16.60;;
16015;SDS011;8112;53.592;10.184;2023-09-12T18:55:50;16.97;;;15.53;;
16015;SDS011;8112;53.592;10.184;2023-09-12T19:00:52;19.50;;;17.87;;
16015;SDS011;8112;53.592;10.184;2023-09-12T19:05:53;20.50;;;18.60;;
16015;SDS011;8112;53.592;10.184;2023-09-12T19:10:58;20.57;;;18.70;;
16015;SDS011;8112;53.592;10.184;2023-09-12T19:16:00;20.27;;;18.53;;
16015;SDS011;8112;53.592;10.184;2023-09-12T19:21:01;19.73;;;18.13;;
16015;SDS011;8112;53.592;10.184;2023-09-12T19:26:06;20.57;;;18.57;;
16015;SDS011;8112;53.592;10.184;2023-09-12T19:31:08;20.97;;;18.93;;
16015;SDS011;8112;53.592;10.184;2023-09-12T19:36:14;18.10;;;16.50;;
16015;SDS011;8112;53.592;10.184;2023-09-12T19:41:17;20.67;;;18.67;;
16015;SDS011;8112;53.592;10.184;2023-09-12T19:46:19;20.00;;;18.10;;
16015;SDS011;8112;53.592;10.184;2023-09-12T19:51:20;19.50;;;17.80;;
16015;SDS011;8112;53.592;10.184;2023-09-12T19:56:23;18.73;;;17.10;;
16015;SDS011;8112;53.592;10.184;2023-09-12T20:01:25;19.47;;;17.73;;
16015;SDS011;8112;53.592;10.184;2023-09-12T20:06:27;18.47;;;16.87;;
16015;SDS011;8112;53.592;10.184;2023-09-12T20:11:30;17.83;;;16.13;;
16015;SDS011;8112;53.592;10.184;2023-09-12T20:16:31;18.50;;;16.97;;
16015;SDS011;8112;53.592;10.184;2023-09-12T20:21:33;17.43;;;15.83;;
16015;SDS011;8112;53.592;10.184;2023-09-12T20:26:36;17.50;;;15.90;;
16015;SDS011;8112;53.592;10.184;2023-09-12T20:31:39;18.43;;;16.93;;
16015;SDS011;8112;53.592;10.184;2023-09-12T20:36:41;17.57;;;16.00;;
16015;SDS011;8112;53.592;10.184;2023-09-12T20:41:44;18.97;;;16.93;;
16015;SDS011;8112;53.592;10.184;2023-09-12T20:46:45;16.80;;;15.40;;
16015;SDS011;8112;53.592;10.184;2023-09-12T20:51:47;18.13;;;16.40;;
16015;SDS011;8112;53.592;10.184;2023-09-12T20:56:51;17.70;;;16.20;;
16015;SDS011;8112;53.592;10.184;2023-09-12T21:01:53;17.00;;;15.50;;
16015;SDS011;8112;53.592;10.184;2023-09-12T21:06:55;17.53;;;15.27;;
16015;SDS011;8112;53.592;10.184;2023-09-12T21:11:58;17.83;;;16.23;;
16015;SDS011;8112;53.592;10.184;2023-09-12T21:17:03;17.03;;;15.53;;
16015;SDS011;8112;53.592;10.184;2023-09-12T21:22:05;15.23;;;13.93;;
16015;SDS011;8112;53.592;10.184;2023-09-12T21:27:08;14.40;;;13.20;;
16015;SDS011;8112;53.592;10.184;2023-09-12T21:32:10;16.23;;;14.73;;
16015;SDS011;8112;53.592;10.184;2023-09-12T21:37:12;14.17;;;12.93;;
16015;SDS011;8112;53.592;10.184;2023-09-12T21:42:15;15.07;;;13.77;;
16015;SDS011;8112;53.592;10.184;2023-09-12T21:47:19;13.97;;;12.77;;
16015;SDS011;8112;53.592;10.184;2023-09-12T21:52:21;13.80;;;12.73;;
16015;SDS011;8112;53.592;10.184;2023-09-12T21:57:24;14.63;;;13.17;;
16015;SDS011;8112;53.592;10.184;2023-09-12T22:02:26;16.57;;;15.07;;
16015;SDS011;8112;53.592;10.184;2023-09-12T22:07:28;14.40;;;13.20;;
16015;SDS011;8112;53.592;10.184;2023-09-12T22:12:32;16.00;;;14.50;;
16015;SDS011;8112;53.592;10.184;2023-09-12T22:17:34;13.27;;;12.07;;
16015;SDS011;8112;53.592;10.184;2023-09-12T22:22:36;13.33;;;12.13;;
16015;SDS011;8112;53.592;10.184;2023-09-12T22:27:39;13.50;;;12.23;;
16015;SDS011;8112;53.592;10.184;2023-09-12T22:32:42;13.53;;;12.23;;
16015;SDS011;8112;53.592;10.184;2023-09-12T22:37:44;13.73;;;12.23;;
16015;SDS011;8112;53.592;10.184;2023-09-12T22:42:47;16.00;;;14.50;;
16015;SDS011;8112;53.592;10.184;2023-09-12T22:47:49;17.03;;;15.30;;
16015;SDS011;8112;53.592;10.184;2023-09-12T22:52:50;16.93;;;15.43;;
16015;SDS011;8112;53.592;10.184;2023-09-12T22:57:53;21.07;;;19.07;;
16015;SDS011;8112;53.592;10.184;2023-09-12T23:02:55;22.50;;;20.17;;
16015;SDS011;8112;53.592;10.184;2023-09-12T23:07:57;21.07;;;19.07;;
16015;SDS011;8112;53.592;10.184;2023-09-12T23:13:00;22.93;;;19.67;;
16015;SDS011;8112;53.592;10.184;2023-09-12T23:18:01;26.53;;;21.63;;
16015;SDS011;8112;53.592;10.184;2023-09-12T23:23:03;71.87;;;24.07;;
16015;SDS011;8112;53.592;10.184;2023-09-12T23:28:06;46.77;;;24.00;;
16015;SDS011;8112;53.592;10.184;2023-09-12T23:33:08;27.80;;;22.10;;
16015;SDS011;8112;53.592;10.184;2023-09-12T23:38:10;23.83;;;21.30;;
16015;SDS011;8112;53.592;10.184;2023-09-12T23:43:13;24.53;;;22.00;;
16015;SDS011;8112;53.592;10.184;2023-09-12T23:48:14;30.57;;;22.13;;
16015;SDS011;8112;53.592;10.184;2023-09-12T23:53:16;25.23;;;22.73;;
16015;SDS011;8112;53.592;10.184;2023-09-12T23:58:21;36.63;;;25.33;;
